Terminal Aerodrome Forecast
Issued by NWS Cleveland, OH

Home | Current Version | Previous Version | Graphics & Text | Print | Product List | Glossary On
Versions: 1 2 3 4 5 6 7 8 9 10 11 12 13 14 15 16 17 18 19 20 21 22 23 24 25
000
FTUS41 KCLE 210526
TAFYNG
TAF
KYNG 210526Z 2106/2206 22005KT P6SM OVC015
     FM211100 21005KT 4SM -DZ BR OVC008
     FM211500 19005KT 2SM -DZ BR OVC004
     FM211900 18008KT 4SM -DZ BR OVC008
     FM220500 17008KT 2SM BR OVC004=

USA.gov is the U.S. government's official web portal to all federal, state and local government web resources and services.